Test XHTML 1.0 Strict Page for WU-History Testing
Station Historical Data
 
Daily Summary for January 22, 2017 Units:  Both    English   Metric
« Previous Day
Next Day »
Daily Weekly Monthly Yearly Custom
  Current: High: Low: Average:
Temperature: 31.3 °F /  -0.4 °C 36.0 °F /  2.2 °C 27.9 °F /  -2.3 °C 29.8 °F /  -1.2 °C
Dew Point: 31.3 °F /  -0.4 °C 36.0 °F /  2.2 °C 27.9 °F /  -2.3 °C 29.8 °F /  -1.2 °C
Humidity: 100 % 100 % 100 % 100 %
Wind Speed: 0.0 mph /  0 km/h 5.8 mph /  9.3 km/h - 0.8 mph /  1.3 km/h
Wind Gust: 0.0 mph /  0 km/h 5.8 mph /  9.3 km/h - -
Wind:Calm - - SE
Pressure: 30.29 in /  1025.6 hPa 30.29 in /  1025.6 hPa 30.25 in /  1024.3 hPa -
Precipitation: 0.00 in /  0 mm      
Historical Graphs
 
 
Weather-Above Climate History
Untitled
Tabular Data for January 22, 2017
Time Temperature Dew Point Pressure Wind Wind Speed Wind Gust Humidity Rainfall Rate (Hourly) solar Conditions
00:02 36.0 °F /  2.2 °C 36.0 °F /  2.2 °C 30.26 in /  1024.6 hPa Calm     100 % 0.00 in /  0 mm 0.0 W/m2
00:07 36.0 °F /  2.2 °C 36.0 °F /  2.2 °C 30.26 in /  1024.6 hPa SE 4.6 mph /  7.4 km/h 4.6 mph /  7.4 km/h 100 % 0.00 in /  0 mm 9.0 W/m2
00:12 35.8 °F /  2.1 °C 35.8 °F /  2.1 °C 30.26 in /  1024.6 hPa Calm     100 % 0.00 in /  0 mm 0.0 W/m2
00:17 35.4 °F /  1.9 °C 35.4 °F /  1.9 °C 30.26 in /  1024.6 hPa SE 2.6 mph /  4.2 km/h 2.6 mph /  4.2 km/h 100 % 0.00 in /  0 mm 13.5 W/m2
00:22 35.1 °F /  1.7 °C 35.1 °F /  1.7 °C 30.26 in /  1024.6 hPa Calm     100 % 0.00 in /  0 mm 13.5 W/m2
00:27 34.2 °F /  1.2 °C 34.2 °F /  1.2 °C 30.26 in /  1024.6 hPa Calm     100 % 0.00 in /  0 mm 0.0 W/m2
00:32 33.6 °F /  0.9 °C 33.6 °F /  0.9 °C 30.26 in /  1024.6 hPa Calm     100 % 0.00 in /  0 mm 13.5 W/m2
00:37 32.9 °F /  0.5 °C 32.9 °F /  0.5 °C 30.26 in /  1024.6 hPa Calm     100 % 0.00 in /  0 mm 13.5 W/m2
00:42 32.5 °F /  0.3 °C 32.5 °F /  0.3 °C 30.26 in /  1024.6 hPa Calm     100 % 0.00 in /  0 mm 10.5 W/m2
00:47 31.5 °F /  -0.3 °C 31.5 °F /  -0.3 °C 30.25 in /  1024.3 hPa Calm     100 % 0.00 in /  0 mm 0.0 W/m2
00:52 31.1 °F /  -0.5 °C 31.1 °F /  -0.5 °C 30.25 in /  1024.3 hPa Calm     100 % 0.00 in /  0 mm 13.5 W/m2
00:57 30.7 °F /  -0.7 °C 30.7 °F /  -0.7 °C 30.26 in /  1024.6 hPa Calm     100 % 0.00 in /  0 mm 10.5 W/m2
01:02 30.6 °F /  -0.8 °C 30.6 °F /  -0.8 °C 30.25 in /  1024.3 hPa Calm     100 % 0.00 in /  0 mm 0.0 W/m2
01:07 30.6 °F /  -0.8 °C 30.6 °F /  -0.8 °C 30.26 in /  1024.6 hPa Calm     100 % 0.00 in /  0 mm 9.0 W/m2
01:12 30.6 °F /  -0.8 °C 30.6 °F /  -0.8 °C 30.26 in /  1024.6 hPa Calm     100 % 0.00 in /  0 mm 12.0 W/m2
01:17 30.2 °F /  -1 °C 30.2 °F /  -1 °C 30.26 in /  1024.6 hPa Calm     100 % 0.00 in /  0 mm 0.0 W/m2
01:22 30.2 °F /  -1 °C 30.2 °F /  -1 °C 30.25 in /  1024.3 hPa Calm     100 % 0.00 in /  0 mm 10.5 W/m2
01:27 30.0 °F /  -1.1 °C 30.0 °F /  -1.1 °C 30.26 in /  1024.6 hPa Calm     100 % 0.00 in /  0 mm 15.0 W/m2
01:32 29.8 °F /  -1.2 °C 29.8 °F /  -1.2 °C 30.26 in /  1024.6 hPa Calm     100 % 0.00 in /  0 mm 0.0 W/m2
01:37 29.8 °F /  -1.2 °C 29.8 °F /  -1.2 °C 30.26 in /  1024.6 hPa Calm     100 % 0.00 in /  0 mm 0.0 W/m2
01:42 29.7 °F /  -1.3 °C 29.7 °F /  -1.3 °C 30.25 in /  1024.3 hPa Calm     100 % 0.00 in /  0 mm 12.0 W/m2
01:47 29.7 °F /  -1.3 °C 29.7 °F /  -1.3 °C 30.26 in /  1024.6 hPa Calm     100 % 0.00 in /  0 mm 0.0 W/m2
01:52 29.3 °F /  -1.5 °C 29.3 °F /  -1.5 °C 30.26 in /  1024.6 hPa Calm     100 % 0.00 in /  0 mm 0.0 W/m2
01:57 29.1 °F /  -1.6 °C 29.1 °F /  -1.6 °C 30.26 in /  1024.6 hPa Calm     100 % 0.00 in /  0 mm 0.0 W/m2
02:02 29.1 °F /  -1.6 °C 29.1 °F /  -1.6 °C 30.25 in /  1024.3 hPa Calm     100 % 0.00 in /  0 mm 0.0 W/m2
02:07 28.9 °F /  -1.7 °C 28.9 °F /  -1.7 °C 30.26 in /  1024.6 hPa Calm     100 % 0.00 in /  0 mm 0.0 W/m2
02:12 28.9 °F /  -1.7 °C 28.9 °F /  -1.7 °C 30.26 in /  1024.6 hPa Calm     100 % 0.00 in /  0 mm 0.0 W/m2
02:17 28.8 °F /  -1.8 °C 28.8 °F /  -1.8 °C 30.26 in /  1024.6 hPa Calm     100 % 0.00 in /  0 mm 12.0 W/m2
02:22 28.8 °F /  -1.8 °C 28.8 °F /  -1.8 °C 30.25 in /  1024.3 hPa Calm     100 % 0.00 in /  0 mm 0.0 W/m2
02:27 28.4 °F /  -2 °C 28.4 °F /  -2 °C 30.25 in /  1024.3 hPa Calm     100 % 0.00 in /  0 mm 0.0 W/m2
02:33 28.6 °F /  -1.9 °C 28.6 °F /  -1.9 °C 30.26 in /  1024.6 hPa Calm     100 % 0.00 in /  0 mm 12.0 W/m2
02:38 28.4 °F /  -2 °C 28.4 °F /  -2 °C 30.25 in /  1024.3 hPa Calm     100 % 0.00 in /  0 mm 0.0 W/m2
02:43 28.8 °F /  -1.8 °C 28.8 °F /  -1.8 °C 30.25 in /  1024.3 hPa Calm     100 % 0.00 in /  0 mm 0.0 W/m2
02:48 28.9 °F /  -1.7 °C 28.9 °F /  -1.7 °C 30.25 in /  1024.3 hPa Calm     100 % 0.00 in /  0 mm 10.5 W/m2
02:53 29.1 °F /  -1.6 °C 29.1 °F /  -1.6 °C 30.25 in /  1024.3 hPa Calm     100 % 0.00 in /  0 mm 10.5 W/m2
02:58 29.1 °F /  -1.6 °C 29.1 °F /  -1.6 °C 30.25 in /  1024.3 hPa Calm     100 % 0.00 in /  0 mm 0.0 W/m2
03:03 29.1 °F /  -1.6 °C 29.1 °F /  -1.6 °C 30.25 in /  1024.3 hPa Calm     100 % 0.00 in /  0 mm 7.5 W/m2
03:08 29.3 °F /  -1.5 °C 29.3 °F /  -1.5 °C 30.25 in /  1024.3 hPa Calm     100 % 0.00 in /  0 mm 12.0 W/m2
03:13 29.7 °F /  -1.3 °C 29.7 °F /  -1.3 °C 30.25 in /  1024.3 hPa Calm     100 % 0.00 in /  0 mm 0.0 W/m2
03:18 29.7 °F /  -1.3 °C 29.7 °F /  -1.3 °C 30.25 in /  1024.3 hPa SSE 0.3 mph /  0.5 km/h   100 % 0.00 in /  0 mm 9.0 W/m2
03:23 29.8 °F /  -1.2 °C 29.8 °F /  -1.2 °C 30.25 in /  1024.3 hPa Calm     100 % 0.00 in /  0 mm 10.5 W/m2
03:28 29.8 °F /  -1.2 °C 29.8 °F /  -1.2 °C 30.25 in /  1024.3 hPa Calm     100 % 0.00 in /  0 mm 12.0 W/m2
03:33 30.0 °F /  -1.1 °C 30.0 °F /  -1.1 °C 30.25 in /  1024.3 hPa Calm     100 % 0.00 in /  0 mm 0.0 W/m2
03:38 30.2 °F /  -1 °C 30.2 °F /  -1 °C 30.25 in /  1024.3 hPa SE 2.3 mph /  3.7 km/h 2.3 mph /  3.7 km/h 100 % 0.00 in /  0 mm 10.5 W/m2
03:43 30.6 °F /  -0.8 °C 30.6 °F /  -0.8 °C 30.25 in /  1024.3 hPa SE 3.5 mph /  5.6 km/h   100 % 0.00 in /  0 mm 12.0 W/m2
03:48 30.6 °F /  -0.8 °C 30.6 °F /  -0.8 °C 30.25 in /  1024.3 hPa Calm     100 % 0.00 in /  0 mm 0.0 W/m2
03:53 30.7 °F /  -0.7 °C 30.7 °F /  -0.7 °C 30.25 in /  1024.3 hPa Calm     100 % 0.00 in /  0 mm 13.5 W/m2
03:58 30.7 °F /  -0.7 °C 30.7 °F /  -0.7 °C 30.25 in /  1024.3 hPa Calm     100 % 0.00 in /  0 mm 9.0 W/m2
04:03 30.7 °F /  -0.7 °C 30.7 °F /  -0.7 °C 30.25 in /  1024.3 hPa Calm     100 % 0.00 in /  0 mm 0.0 W/m2
04:08 30.9 °F /  -0.6 °C 30.9 °F /  -0.6 °C 30.25 in /  1024.3 hPa SSE 2.5 mph /  4 km/h 2.5 mph /  4 km/h 100 % 0.00 in /  0 mm 9.0 W/m2
04:13 30.9 °F /  -0.6 °C 30.9 °F /  -0.6 °C 30.25 in /  1024.3 hPa South 5.7 mph /  9.2 km/h 5.7 mph /  9.2 km/h 100 % 0.00 in /  0 mm 9.0 W/m2
04:18 30.7 °F /  -0.7 °C 30.7 °F /  -0.7 °C 30.25 in /  1024.3 hPa SSE 5.4 mph /  8.7 km/h 5.4 mph /  8.7 km/h 100 % 0.00 in /  0 mm 0.0 W/m2
04:23 30.6 °F /  -0.8 °C 30.6 °F /  -0.8 °C 30.25 in /  1024.3 hPa ESE 5.8 mph /  9.3 km/h 5.8 mph /  9.3 km/h 100 % 0.00 in /  0 mm 0.0 W/m2
04:28 30.4 °F /  -0.9 °C 30.4 °F /  -0.9 °C 30.25 in /  1024.3 hPa SE 3.7 mph /  6 km/h 3.7 mph /  6 km/h 100 % 0.00 in /  0 mm 10.5 W/m2
04:33 30.6 °F /  -0.8 °C 30.6 °F /  -0.8 °C 30.25 in /  1024.3 hPa ESE 3.7 mph /  6 km/h 3.7 mph /  6 km/h 100 % 0.00 in /  0 mm 0.0 W/m2
04:38 30.6 °F /  -0.8 °C 30.6 °F /  -0.8 °C 30.25 in /  1024.3 hPa SE 5.8 mph /  9.3 km/h 5.8 mph /  9.3 km/h 100 % 0.00 in /  0 mm 0.0 W/m2
04:43 30.2 °F /  -1 °C 30.2 °F /  -1 °C 30.25 in /  1024.3 hPa Calm     100 % 0.00 in /  0 mm 12.0 W/m2
04:48 29.8 °F /  -1.2 °C 29.8 °F /  -1.2 °C 30.25 in /  1024.3 hPa Calm     100 % 0.00 in /  0 mm 0.0 W/m2
04:54 29.7 °F /  -1.3 °C 29.7 °F /  -1.3 °C 30.25 in /  1024.3 hPa SE 2.3 mph /  3.7 km/h 2.3 mph /  3.7 km/h 100 % 0.00 in /  0 mm 0.0 W/m2
04:59 29.5 °F /  -1.4 °C 29.5 °F /  -1.4 °C 30.25 in /  1024.3 hPa Calm     100 % 0.00 in /  0 mm 0.0 W/m2
05:04 29.3 °F /  -1.5 °C 29.3 °F /  -1.5 °C 30.25 in /  1024.3 hPa Calm     100 % 0.00 in /  0 mm 0.0 W/m2
05:09 28.9 °F /  -1.7 °C 28.9 °F /  -1.7 °C 30.25 in /  1024.3 hPa Calm     100 % 0.00 in /  0 mm 0.0 W/m2
05:14 28.8 °F /  -1.8 °C 28.8 °F /  -1.8 °C 30.25 in /  1024.3 hPa Calm     100 % 0.00 in /  0 mm 0.0 W/m2
05:19 28.4 °F /  -2 °C 28.4 °F /  -2 °C 30.25 in /  1024.3 hPa Calm     100 % 0.00 in /  0 mm 12.0 W/m2
05:24 28.4 °F /  -2 °C 28.4 °F /  -2 °C 30.25 in /  1024.3 hPa Calm     100 % 0.00 in /  0 mm 0.0 W/m2
05:29 28.4 °F /  -2 °C 28.4 °F /  -2 °C 30.25 in /  1024.3 hPa Calm     100 % 0.00 in /  0 mm 0.0 W/m2
05:34 28.4 °F /  -2 °C 28.4 °F /  -2 °C 30.25 in /  1024.3 hPa Calm     100 % 0.00 in /  0 mm 10.5 W/m2
05:39 28.2 °F /  -2.1 °C 28.2 °F /  -2.1 °C 30.25 in /  1024.3 hPa Calm     100 % 0.00 in /  0 mm 9.0 W/m2
05:44 28.4 °F /  -2 °C 28.4 °F /  -2 °C 30.25 in /  1024.3 hPa Calm     100 % 0.00 in /  0 mm 0.0 W/m2
05:49 28.0 °F /  -2.2 °C 28.0 °F /  -2.2 °C 30.25 in /  1024.3 hPa Calm     100 % 0.00 in /  0 mm 12.0 W/m2
05:54 28.0 °F /  -2.2 °C 28.0 °F /  -2.2 °C 30.25 in /  1024.3 hPa Calm     100 % 0.00 in /  0 mm 12.0 W/m2
05:59 27.9 °F /  -2.3 °C 27.9 °F /  -2.3 °C 30.25 in /  1024.3 hPa Calm     100 % 0.00 in /  0 mm 0.0 W/m2
06:04 28.0 °F /  -2.2 °C 28.0 °F /  -2.2 °C 30.25 in /  1024.3 hPa Calm     100 % 0.00 in /  0 mm 9.0 W/m2
06:09 28.0 °F /  -2.2 °C 28.0 °F /  -2.2 °C 30.25 in /  1024.3 hPa Calm     100 % 0.00 in /  0 mm 12.0 W/m2
06:14 28.0 °F /  -2.2 °C 28.0 °F /  -2.2 °C 30.25 in /  1024.3 hPa Calm     100 % 0.00 in /  0 mm 0.0 W/m2
06:19 28.2 °F /  -2.1 °C 28.2 °F /  -2.1 °C 30.25 in /  1024.3 hPa Calm     100 % 0.00 in /  0 mm 10.5 W/m2
06:24 28.4 °F /  -2 °C 28.4 °F /  -2 °C 30.25 in /  1024.3 hPa SSE 2.8 mph /  4.5 km/h 2.8 mph /  4.5 km/h 100 % 0.00 in /  0 mm 13.5 W/m2
06:29 28.2 °F /  -2.1 °C 28.2 °F /  -2.1 °C 30.25 in /  1024.3 hPa SSE 3.7 mph /  6 km/h 3.7 mph /  6 km/h 100 % 0.00 in /  0 mm 10.5 W/m2
06:34 28.2 °F /  -2.1 °C 28.2 °F /  -2.1 °C 30.25 in /  1024.3 hPa SE 3.6 mph /  5.8 km/h 3.6 mph /  5.8 km/h 100 % 0.00 in /  0 mm 0.0 W/m2
06:39 27.9 °F /  -2.3 °C 27.9 °F /  -2.3 °C 30.25 in /  1024.3 hPa SE 1.2 mph /  1.9 km/h   100 % 0.00 in /  0 mm 9.0 W/m2
06:44 27.9 °F /  -2.3 °C 27.9 °F /  -2.3 °C 30.25 in /  1024.3 hPa Calm     100 % 0.00 in /  0 mm 12.0 W/m2
06:49 27.9 °F /  -2.3 °C 27.9 °F /  -2.3 °C 30.25 in /  1024.3 hPa Calm     100 % 0.00 in /  0 mm 0.0 W/m2
06:54 27.9 °F /  -2.3 °C 27.9 °F /  -2.3 °C 30.26 in /  1024.6 hPa Calm     100 % 0.00 in /  0 mm 13.5 W/m2
06:59 28.0 °F /  -2.2 °C 28.0 °F /  -2.2 °C 30.25 in /  1024.3 hPa Calm     100 % 0.00 in /  0 mm 9.0 W/m2
07:04 28.0 °F /  -2.2 °C 28.0 °F /  -2.2 °C 30.25 in /  1024.3 hPa SSE 2.3 mph /  3.7 km/h 2.3 mph /  3.7 km/h 100 % 0.00 in /  0 mm 0.0 W/m2
07:09 27.9 °F /  -2.3 °C 27.9 °F /  -2.3 °C 30.25 in /  1024.3 hPa SE 5.1 mph /  8.2 km/h 5.1 mph /  8.2 km/h 100 % 0.00 in /  0 mm 0.0 W/m2
07:14 27.9 °F /  -2.3 °C 27.9 °F /  -2.3 °C 30.25 in /  1024.3 hPa SSE 3.7 mph /  6 km/h 3.7 mph /  6 km/h 100 % 0.00 in /  0 mm 13.5 W/m2
07:19 28.0 °F /  -2.2 °C 28.0 °F /  -2.2 °C 30.26 in /  1024.6 hPa SE 1.2 mph /  1.9 km/h   100 % 0.00 in /  0 mm 0.0 W/m2
07:24 28.0 °F /  -2.2 °C 28.0 °F /  -2.2 °C 30.26 in /  1024.6 hPa Calm     100 % 0.00 in /  0 mm 0.0 W/m2
07:30 28.2 °F /  -2.1 °C 28.2 °F /  -2.1 °C 30.26 in /  1024.6 hPa SE 1.8 mph /  2.9 km/h 1.8 mph /  2.9 km/h 100 % 0.00 in /  0 mm 12.0 W/m2
07:35 28.0 °F /  -2.2 °C 28.0 °F /  -2.2 °C 30.26 in /  1024.6 hPa Calm     100 % 0.00 in /  0 mm 0.0 W/m2
07:40 28.2 °F /  -2.1 °C 28.2 °F /  -2.1 °C 30.26 in /  1024.6 hPa Calm     100 % 0.00 in /  0 mm 0.0 W/m2
07:42 28.4 °F /  -2 °C 28.4 °F /  -2 °C 30.26 in /  1024.6 hPa Calm     100 % 0.00 in /  0 mm 0.0 W/m2
07:47 28.4 °F /  -2 °C 28.4 °F /  -2 °C 30.26 in /  1024.6 hPa Calm     100 % 0.00 in /  0 mm 10.5 W/m2
07:52 28.8 °F /  -1.8 °C 28.8 °F /  -1.8 °C 30.26 in /  1024.6 hPa SSE 2.8 mph /  4.5 km/h 2.8 mph /  4.5 km/h 100 % 0.00 in /  0 mm 0.0 W/m2
07:57 28.8 °F /  -1.8 °C 28.8 °F /  -1.8 °C 30.26 in /  1024.6 hPa SE 4.8 mph /  7.7 km/h 4.8 mph /  7.7 km/h 100 % 0.00 in /  0 mm 0.0 W/m2
08:02 28.9 °F /  -1.7 °C 28.9 °F /  -1.7 °C 30.26 in /  1024.6 hPa South 3.5 mph /  5.6 km/h 3.5 mph /  5.6 km/h 100 % 0.00 in /  0 mm 12.0 W/m2
08:07 29.3 °F /  -1.5 °C 29.3 °F /  -1.5 °C 30.26 in /  1024.6 hPa Calm     100 % 0.00 in /  0 mm 9.0 W/m2
08:12 29.3 °F /  -1.5 °C 29.3 °F /  -1.5 °C 30.26 in /  1024.6 hPa East 2.3 mph /  3.7 km/h 2.3 mph /  3.7 km/h 100 % 0.00 in /  0 mm 16.5 W/m2
08:17 29.5 °F /  -1.4 °C 29.5 °F /  -1.4 °C 30.26 in /  1024.6 hPa Calm     100 % 0.00 in /  0 mm 16.5 W/m2
08:22 29.7 °F /  -1.3 °C 29.7 °F /  -1.3 °C 30.27 in /  1024.9 hPa Calm     100 % 0.00 in /  0 mm 18.0 W/m2
08:27 29.7 °F /  -1.3 °C 29.7 °F /  -1.3 °C 30.27 in /  1024.9 hPa Calm     100 % 0.00 in /  0 mm 0.3 W/m2
08:32 29.7 °F /  -1.3 °C 29.7 °F /  -1.3 °C 30.27 in /  1024.9 hPa ESE 2.3 mph /  3.7 km/h   100 % 0.00 in /  0 mm 19.5 W/m2
08:37 29.8 °F /  -1.2 °C 29.8 °F /  -1.2 °C 30.27 in /  1024.9 hPa Calm     100 % 0.00 in /  0 mm 19.5 W/m2
08:42 29.8 °F /  -1.2 °C 29.8 °F /  -1.2 °C 30.27 in /  1024.9 hPa Calm     100 % 0.00 in /  0 mm 1.0 W/m2
08:47 29.8 °F /  -1.2 °C 29.8 °F /  -1.2 °C 30.28 in /  1025.3 hPa SE 2.6 mph /  4.2 km/h 2.6 mph /  4.2 km/h 100 % 0.00 in /  0 mm 27.0 W/m2
08:52 30.0 °F /  -1.1 °C 30.0 °F /  -1.1 °C 30.27 in /  1024.9 hPa Calm     100 % 0.00 in /  0 mm 31.5 W/m2
08:57 30.0 °F /  -1.1 °C 30.0 °F /  -1.1 °C 30.27 in /  1024.9 hPa Calm     100 % 0.00 in /  0 mm 33.0 W/m2
09:02 30.2 °F /  -1 °C 30.2 °F /  -1 °C 30.27 in /  1024.9 hPa Calm     100 % 0.00 in /  0 mm 39.0 W/m2
09:07 30.2 °F /  -1 °C 30.2 °F /  -1 °C 30.27 in /  1024.9 hPa Calm     100 % 0.00 in /  0 mm 33.0 W/m2
09:12 30.2 °F /  -1 °C 30.2 °F /  -1 °C 30.27 in /  1024.9 hPa Calm     100 % 0.00 in /  0 mm 3.4 W/m2
09:17 30.6 °F /  -0.8 °C 30.6 °F /  -0.8 °C 30.27 in /  1024.9 hPa Calm     100 % 0.00 in /  0 mm 45.0 W/m2
09:22 30.6 °F /  -0.8 °C 30.6 °F /  -0.8 °C 30.28 in /  1025.3 hPa Calm     100 % 0.00 in /  0 mm 54.0 W/m2
09:27 30.7 °F /  -0.7 °C 30.7 °F /  -0.7 °C 30.28 in /  1025.3 hPa Calm     100 % 0.00 in /  0 mm 43.5 W/m2
09:32 30.7 °F /  -0.7 °C 30.7 °F /  -0.7 °C 30.28 in /  1025.3 hPa Calm     100 % 0.00 in /  0 mm 3.1 W/m2
09:37 30.9 °F /  -0.6 °C 30.9 °F /  -0.6 °C 30.28 in /  1025.3 hPa Calm     100 % 0.00 in /  0 mm 39.0 W/m2
09:43 30.9 °F /  -0.6 °C 30.9 °F /  -0.6 °C 30.28 in /  1025.3 hPa Calm     100 % 0.00 in /  0 mm 36.0 W/m2
09:48 31.1 °F /  -0.5 °C 31.1 °F /  -0.5 °C 30.28 in /  1025.3 hPa Calm     100 % 0.00 in /  0 mm 3.7 W/m2
09:53 31.1 °F /  -0.5 °C 31.1 °F /  -0.5 °C 30.28 in /  1025.3 hPa South 2.3 mph /  3.7 km/h 2.3 mph /  3.7 km/h 100 % 0.00 in /  0 mm 46.5 W/m2
09:58 31.3 °F /  -0.4 °C 31.3 °F /  -0.4 °C 30.28 in /  1025.3 hPa South 2.3 mph /  3.7 km/h 2.3 mph /  3.7 km/h 100 % 0.00 in /  0 mm 43.5 W/m2
10:03 31.3 °F /  -0.4 °C 31.3 °F /  -0.4 °C 30.28 in /  1025.3 hPa SE 2.3 mph /  3.7 km/h 2.3 mph /  3.7 km/h 100 % 0.00 in /  0 mm 2.8 W/m2 OVC
10:08 31.3 °F /  -0.4 °C 31.3 °F /  -0.4 °C 30.29 in /  1025.6 hPa Calm     100 % 0.00 in /  0 mm 30.0 W/m2 OVC
Wether-Above
Compliments of Weather Underground - 1.5 mb
Welcome to Weather-Above
Cheddleton weather station supplies various organisations with data from our weather station one of them is the weather Underground this information displayed here is coming from the weather Underground server 

If any information is used please acknowledge the source to www weather-above.com or weather Underground